createdAt,value
2018-08-23T00:01:37.461Z,97.00
2018-08-23T00:04:12.074Z,96.10
2018-08-23T00:06:52.230Z,95.00
2018-08-23T00:09:22.622Z,94.80
2018-08-23T00:11:53.243Z,95.00
2018-08-23T00:14:23.857Z,94.20
2018-08-23T00:16:54.856Z,93.80
2018-08-23T00:19:26.789Z,93.00
2018-08-23T00:21:57.426Z,92.00
2018-08-23T00:24:27.779Z,91.80
2018-08-23T00:26:59.397Z,91.80
2018-08-23T00:29:30.844Z,91.60
2018-08-23T00:32:05.243Z,91.50
2018-08-23T00:34:37.699Z,90.70
2018-08-23T00:37:08.733Z,90.80
2018-08-23T00:39:39.047Z,90.50
2018-08-23T00:42:15.157Z,90.10
2018-08-23T00:45:00.994Z,88.90
2018-08-23T00:47:34.336Z,90.10
2018-08-23T00:50:04.861Z,90.40
2018-08-23T00:52:47.714Z,90.20
2018-08-23T00:55:31.921Z,89.50
2018-08-23T00:58:05.178Z,88.30
2018-08-23T01:00:35.747Z,88.50
2018-08-23T01:03:06.677Z,89.30
2018-08-23T01:05:40.768Z,89.70
2018-08-23T01:08:11.381Z,89.50
2018-08-23T01:10:41.873Z,89.40
2018-08-23T01:13:12.239Z,89.80
2018-08-23T01:15:50.232Z,90.30
2018-08-23T01:18:21.914Z,91.20
2018-08-23T01:20:53.489Z,92.10
2018-08-23T01:23:23.812Z,92.90
2018-08-23T01:25:54.221Z,93.60
2018-08-23T01:28:24.534Z,94.10
2018-08-23T01:30:55.495Z,95.20
2018-08-23T01:33:25.890Z,95.90
2018-08-23T01:35:56.402Z,96.30
2018-08-23T01:38:27.124Z,97.10
2018-08-23T01:41:02.655Z,97.40
2018-08-23T01:43:33.049Z,97.60
2018-08-23T01:46:05.057Z,98.20
2018-08-23T01:48:37.900Z,98.10
2018-08-23T01:51:08.950Z,98.50
2018-08-23T01:53:39.475Z,98.70
2018-08-23T01:56:10.178Z,99.10
2018-08-23T01:58:40.874Z,99.20
2018-08-23T02:01:20.191Z,99.50
2018-08-23T02:03:50.494Z,99.50
2018-08-23T02:06:20.787Z,99.30
2018-08-23T02:08:51.355Z,99.30
2018-08-23T02:11:21.659Z,99.40
2018-08-23T02:13:52.534Z,99.10
2018-08-23T02:16:22.994Z,99.20
2018-08-23T02:18:53.538Z,99.40
2018-08-23T02:21:24.000Z,99.50
2018-08-23T02:23:54.619Z,99.60
2018-08-23T02:26:25.156Z,99.20
2018-08-23T02:28:55.746Z,99.80
2018-08-23T02:31:26.081Z,99.90
2018-08-23T02:34:01.414Z,99.90
2018-08-23T02:36:31.760Z,99.90
2018-08-23T02:39:04.700Z,99.90
2018-08-23T02:41:35.087Z,99.90
2018-08-23T02:44:05.800Z,99.90
2018-08-23T02:46:36.355Z,99.90
2018-08-23T02:49:06.872Z,99.90
2018-08-23T02:51:42.723Z,99.90
2018-08-23T02:54:14.578Z,99.90
2018-08-23T02:56:49.916Z,99.90
2018-08-23T03:02:24.958Z,99.90
2018-08-23T03:04:56.096Z,99.90
2018-08-23T03:07:28.927Z,99.90
2018-08-23T03:10:00.658Z,99.90
2018-08-23T03:12:31.768Z,99.90
2018-08-23T03:15:02.718Z,99.90
2018-08-23T03:17:40.722Z,99.90
2018-08-23T03:20:18.758Z,99.90
2018-08-23T03:22:50.996Z,99.90
2018-08-23T03:25:22.815Z,99.90
2018-08-23T03:27:55.652Z,99.90
2018-08-23T03:30:26.595Z,99.90
2018-08-23T03:32:57.542Z,99.90
2018-08-23T03:35:28.546Z,99.90
2018-08-23T03:37:59.570Z,99.90
2018-08-23T03:40:30.672Z,99.90
2018-08-23T03:43:01.587Z,99.90
2018-08-23T03:45:33.796Z,99.90
2018-08-23T03:48:04.908Z,99.90
2018-08-23T03:50:46.371Z,99.90
2018-08-23T03:53:17.313Z,99.90
2018-08-23T03:56:06.911Z,99.90
2018-08-23T03:58:38.039Z,99.90
2018-08-23T04:01:13.060Z,99.90
2018-08-23T04:03:43.492Z,99.90
2018-08-23T04:06:39.880Z,99.90
2018-08-23T04:09:10.466Z,99.90
2018-08-23T04:11:47.572Z,99.90
2018-08-23T04:14:17.975Z,99.90
2018-08-23T04:16:48.462Z,99.90
2018-08-23T04:19:18.723Z,99.90
2018-08-23T04:21:49.319Z,99.90
2018-08-23T04:24:19.628Z,99.90
2018-08-23T04:26:50.198Z,99.90
2018-08-23T04:29:33.998Z,99.90
2018-08-23T04:32:05.074Z,99.90
2018-08-23T04:34:38.370Z,99.90
2018-08-23T04:37:09.051Z,99.90
2018-08-23T04:39:43.480Z,99.90
2018-08-23T04:42:13.744Z,99.90
2018-08-23T04:44:48.165Z,99.90
2018-08-23T04:47:18.541Z,99.90
2018-08-23T04:49:49.091Z,99.90
2018-08-23T04:52:19.876Z,99.90
2018-08-23T04:54:50.305Z,99.90
2018-08-23T04:57:21.042Z,99.90
2018-08-23T04:59:51.544Z,99.90
2018-08-23T05:02:21.960Z,99.90
2018-08-23T05:04:52.443Z,99.90
2018-08-23T05:07:22.816Z,99.90
2018-08-23T05:09:53.287Z,99.90
2018-08-23T05:12:23.752Z,99.90
2018-08-23T05:14:54.209Z,99.90
2018-08-23T05:17:24.660Z,99.90
2018-08-23T05:19:55.008Z,99.90
2018-08-23T05:22:25.365Z,99.90
2018-08-23T05:25:00.988Z,99.90
2018-08-23T05:27:31.440Z,99.90
2018-08-23T05:30:01.827Z,99.90
2018-08-23T05:32:32.165Z,99.90
2018-08-23T05:35:02.552Z,99.90
2018-08-23T05:37:32.837Z,99.90
2018-08-23T05:40:03.173Z,99.90
2018-08-23T05:42:51.663Z,99.90
2018-08-23T05:45:27.737Z,99.90
2018-08-23T05:47:58.323Z,99.90
2018-08-23T05:50:32.558Z,99.90
2018-08-23T05:53:02.871Z,99.90
2018-08-23T05:55:33.255Z,99.90
2018-08-23T05:58:15.027Z,99.90
2018-08-23T06:00:56.748Z,99.90
2018-08-23T06:03:27.519Z,99.90
2018-08-23T06:05:58.323Z,99.90
2018-08-23T06:08:28.608Z,99.90
2018-08-23T06:11:06.335Z,99.90
2018-08-23T06:13:36.687Z,99.90
2018-08-23T06:16:07.878Z,99.90
2018-08-23T06:18:38.575Z,99.90
2018-08-23T06:21:09.431Z,99.90
2018-08-23T06:24:00.368Z,99.90
2018-08-23T06:26:43.443Z,99.90
2018-08-23T06:29:21.194Z,99.90
2018-08-23T06:32:13.114Z,99.90
2018-08-23T06:34:46.645Z,99.90
2018-08-23T06:37:18.426Z,99.90
2018-08-23T06:39:49.439Z,99.90
2018-08-23T06:42:20.195Z,99.90
2018-08-23T06:44:54.188Z,99.90
2018-08-23T06:47:26.562Z,99.90
2018-08-23T06:53:10.594Z,99.10
2018-08-23T06:55:41.274Z,98.50
2018-08-23T06:58:11.911Z,97.40
2018-08-23T07:00:43.265Z,90.50
2018-08-23T07:03:13.943Z,85.10
2018-08-23T07:05:45.332Z,87.70
2018-08-23T07:08:15.947Z,90.40
2018-08-23T07:10:46.745Z,90.00
2018-08-23T07:13:17.649Z,86.50
2018-08-23T07:15:52.335Z,87.80
2018-08-23T07:18:22.979Z,89.00
2018-08-23T07:20:53.971Z,91.40
2018-08-23T07:23:36.011Z,92.90
2018-08-23T07:26:07.924Z,94.70
2018-08-23T07:28:38.814Z,96.40
2018-08-23T07:31:09.471Z,97.00
2018-08-23T07:33:41.407Z,96.40
2018-08-23T07:36:25.406Z,93.80
2018-08-23T07:38:56.923Z,88.60
2018-08-23T07:41:27.852Z,80.40
2018-08-23T07:43:58.470Z,74.80
2018-08-23T07:46:29.422Z,63.80
2018-08-23T07:49:00.133Z,63.10
2018-08-23T07:51:31.063Z,61.30
2018-08-23T07:54:05.533Z,59.10
2018-08-23T07:56:36.630Z,57.80
2018-08-23T07:59:08.039Z,54.20
2018-08-23T08:01:39.036Z,55.90
2018-08-23T08:04:11.901Z,57.50
2018-08-23T08:06:42.624Z,55.30
2018-08-23T08:09:13.973Z,55.20
2018-08-23T08:11:53.122Z,55.00
2018-08-23T08:14:28.622Z,52.70
2018-08-23T08:17:15.851Z,50.90
2018-08-23T08:19:55.816Z,51.50
2018-08-23T08:22:26.141Z,53.60
2018-08-23T08:25:07.552Z,55.80
2018-08-23T08:27:38.336Z,55.40
2018-08-23T08:30:14.091Z,51.90
2018-08-23T08:32:44.741Z,51.20
2018-08-23T08:35:19.191Z,53.40
2018-08-23T08:37:50.654Z,51.10
2018-08-23T08:40:22.996Z,51.10
2018-08-23T08:42:53.416Z,50.80
2018-08-23T08:45:27.493Z,52.20
2018-08-23T08:48:31.436Z,53.20
2018-08-23T08:51:23.039Z,53.70
2018-08-23T08:53:54.207Z,53.10
2018-08-23T08:56:34.481Z,51.10
2018-08-23T08:59:04.835Z,50.90
2018-08-23T09:01:35.182Z,52.10
2018-08-23T09:04:05.822Z,51.10
2018-08-23T09:06:44.246Z,51.40
2018-08-23T09:09:21.660Z,53.90
2018-08-23T09:11:52.171Z,53.60
2018-08-23T09:14:22.998Z,51.50
2018-08-23T09:16:53.615Z,51.00
2018-08-23T09:19:28.582Z,49.30
2018-08-23T09:22:07.880Z,46.90
2018-08-23T09:24:39.627Z,46.20
2018-08-23T09:27:18.769Z,45.30
2018-08-23T09:29:49.005Z,46.80
2018-08-23T09:32:24.492Z,47.90
2018-08-23T09:35:02.879Z,47.70
2018-08-23T09:37:36.777Z,47.80
2018-08-23T09:40:08.196Z,46.80
2018-08-23T09:42:39.226Z,48.60
2018-08-23T09:45:17.711Z,50.60
2018-08-23T09:47:48.038Z,51.00
2018-08-23T09:50:19.122Z,50.00
2018-08-23T09:52:50.507Z,47.90
2018-08-23T09:55:21.775Z,47.50
2018-08-23T09:57:52.186Z,46.90
2018-08-23T10:00:27.846Z,47.90
2018-08-23T10:03:04.907Z,48.20
2018-08-23T10:05:44.721Z,46.00
2018-08-23T10:08:20.262Z,45.50
2018-08-23T10:10:55.732Z,47.40
2018-08-23T10:13:50.876Z,48.30
2018-08-23T10:16:26.346Z,50.20
2018-08-23T10:18:58.958Z,51.90
2018-08-23T10:21:35.513Z,51.60
2018-08-23T10:24:18.424Z,51.80
2018-08-23T10:26:48.911Z,51.20
2018-08-23T10:29:19.489Z,51.70
2018-08-23T10:31:49.999Z,52.30
2018-08-23T10:34:20.461Z,51.40
2018-08-23T10:36:50.747Z,50.30
2018-08-23T10:39:21.422Z,51.50
2018-08-23T10:41:51.901Z,53.50
2018-08-23T10:44:23.356Z,54.30
2018-08-23T10:46:56.324Z,54.60
2018-08-23T10:49:27.562Z,54.80
2018-08-23T10:51:58.699Z,54.10
2018-08-23T10:54:29.275Z,53.30
2018-08-23T10:56:59.853Z,52.90
2018-08-23T10:59:30.751Z,52.00
2018-08-23T11:02:01.213Z,50.60
2018-08-23T11:04:32.246Z,48.80
2018-08-23T11:07:03.487Z,48.30
2018-08-23T11:09:39.185Z,48.10
2018-08-23T11:12:16.355Z,47.50
2018-08-23T11:14:46.818Z,46.70
2018-08-23T11:17:22.451Z,47.30
2018-08-23T11:19:57.694Z,46.10
2018-08-23T11:22:33.099Z,46.60
2018-08-23T11:25:03.466Z,46.00
2018-08-23T11:27:33.859Z,48.70
2018-08-23T11:30:04.475Z,46.80
2018-08-23T11:32:34.819Z,45.20
2018-08-23T11:35:05.148Z,42.20
2018-08-23T11:37:35.658Z,41.80
2018-08-23T11:40:06.319Z,41.00
2018-08-23T11:42:36.812Z,41.90
2018-08-23T11:45:07.486Z,42.50
2018-08-23T11:47:37.778Z,44.30
2018-08-23T11:50:08.153Z,43.70
2018-08-23T11:52:40.386Z,40.20
2018-08-23T11:55:11.825Z,38.40
2018-08-23T11:57:43.593Z,38.30
2018-08-23T12:00:14.600Z,39.80
2018-08-23T12:02:45.225Z,38.60
2018-08-23T12:05:16.814Z,38.90
2018-08-23T12:07:48.352Z,41.20
2018-08-23T12:10:19.750Z,39.40
2018-08-23T12:12:51.763Z,39.00
2018-08-23T12:15:34.663Z,38.80
2018-08-23T12:18:04.975Z,38.00
2018-08-23T12:20:35.427Z,36.40
2018-08-23T12:23:05.747Z,35.10
2018-08-23T12:25:36.299Z,35.10
2018-08-23T12:28:11.418Z,35.50
2018-08-23T12:30:43.604Z,35.70
2018-08-23T12:33:13.984Z,36.70
2018-08-23T12:35:44.374Z,37.90
2018-08-23T12:38:21.526Z,37.80
2018-08-23T12:41:54.956Z,37.60
2018-08-23T12:44:25.251Z,35.60
2018-08-23T12:47:00.763Z,34.30
2018-08-23T12:49:31.263Z,34.40
2018-08-23T12:52:01.454Z,31.60
2018-08-23T12:54:32.174Z,32.50
2018-08-23T12:57:02.352Z,32.30
2018-08-23T12:59:32.680Z,33.90
2018-08-23T13:02:03.245Z,33.70
2018-08-23T13:04:33.574Z,34.40
2018-08-23T13:07:04.402Z,36.40
2018-08-23T13:09:34.712Z,38.60
2018-08-23T13:12:05.151Z,40.30
2018-08-23T13:14:35.478Z,39.80
2018-08-23T13:17:05.824Z,38.30
2018-08-23T13:19:38.167Z,37.50
2018-08-23T13:22:08.623Z,35.30
2018-08-23T13:24:44.094Z,38.10
2018-08-23T13:27:18.173Z,39.40
2018-08-23T13:29:48.543Z,39.60
2018-08-23T13:32:18.666Z,40.50
2018-08-23T13:34:49.119Z,41.20
2018-08-23T13:37:19.418Z,42.90
2018-08-23T13:39:49.602Z,40.50
2018-08-23T13:42:20.475Z,38.70
2018-08-23T13:44:50.922Z,40.70
2018-08-23T13:47:21.279Z,44.40
2018-08-23T13:49:55.798Z,46.30
2018-08-23T13:52:26.082Z,47.00
2018-08-23T13:54:56.362Z,48.00
2018-08-23T13:57:26.752Z,49.00
2018-08-23T13:59:57.141Z,49.10
2018-08-23T14:02:27.704Z,51.50
2018-08-23T14:04:58.083Z,52.50
2018-08-23T14:07:28.498Z,56.70
2018-08-23T14:10:04.189Z,55.50
2018-08-23T14:12:34.841Z,54.40
2018-08-23T14:15:05.716Z,53.40
2018-08-23T14:17:36.283Z,54.10
2018-08-23T14:20:07.104Z,54.40
2018-08-23T14:22:37.827Z,58.00
2018-08-23T14:25:08.459Z,60.20
2018-08-23T14:27:43.919Z,61.10
2018-08-23T14:30:14.699Z,61.80
2018-08-23T14:32:45.594Z,58.00
2018-08-23T14:35:16.527Z,55.00
2018-08-23T14:37:47.159Z,54.50
2018-08-23T14:40:17.576Z,52.20
2018-08-23T14:42:48.417Z,50.80
2018-08-23T14:45:22.930Z,51.50
2018-08-23T14:47:58.508Z,52.90
2018-08-23T14:50:29.142Z,52.90
2018-08-23T14:52:59.646Z,57.80
2018-08-23T14:55:35.202Z,63.70
2018-08-23T14:58:05.826Z,60.30
2018-08-23T15:00:46.750Z,73.10
2018-08-23T15:03:17.650Z,93.90
2018-08-23T15:05:48.280Z,99.90
2018-08-23T15:08:18.968Z,99.90
2018-08-23T15:10:49.822Z,99.90
2018-08-23T15:13:20.204Z,99.90
2018-08-23T15:15:52.662Z,99.90
2018-08-23T15:18:23.456Z,99.90
2018-08-23T15:20:54.269Z,99.90
2018-08-23T15:23:25.791Z,99.90
2018-08-23T15:25:56.114Z,99.90
2018-08-23T15:28:26.886Z,99.90
2018-08-23T15:30:57.628Z,99.90
2018-08-23T15:33:28.381Z,99.90
2018-08-23T15:35:59.282Z,99.90
2018-08-23T15:38:29.691Z,99.90
2018-08-23T15:41:00.367Z,99.90
2018-08-23T15:43:30.742Z,99.90
2018-08-23T15:46:01.429Z,99.90
2018-08-23T15:48:31.853Z,99.90
2018-08-23T15:51:02.511Z,99.90
2018-08-23T15:53:32.883Z,99.90
2018-08-23T15:56:03.631Z,99.90
2018-08-23T15:58:34.295Z,99.90
2018-08-23T16:01:04.908Z,99.90
2018-08-23T16:03:35.587Z,99.90
2018-08-23T16:06:06.479Z,99.90
2018-08-23T16:08:41.945Z,99.90
2018-08-23T16:11:12.675Z,99.90
2018-08-23T16:13:43.203Z,99.90
2018-08-23T16:16:18.921Z,99.90
2018-08-23T16:19:52.024Z,99.90
2018-08-23T16:22:22.582Z,99.90
2018-08-23T16:25:00.079Z,99.90
2018-08-23T16:27:30.603Z,99.90
2018-08-23T16:30:01.080Z,99.90
2018-08-23T16:32:33.723Z,99.90
2018-08-23T16:35:04.219Z,99.90
2018-08-23T16:37:35.284Z,99.90
2018-08-23T16:40:06.118Z,99.90
2018-08-23T16:42:36.839Z,99.90
2018-08-23T16:45:07.202Z,99.90
2018-08-23T16:47:37.703Z,99.90
2018-08-23T16:50:08.228Z,99.90
2018-08-23T16:52:38.810Z,99.90
2018-08-23T16:55:09.289Z,99.90
2018-08-23T16:57:39.882Z,99.90
2018-08-23T17:00:10.379Z,99.90
2018-08-23T17:02:41.183Z,99.90
2018-08-23T17:05:11.799Z,99.90
2018-08-23T17:07:42.304Z,99.90
2018-08-23T17:10:12.914Z,99.90
2018-08-23T17:12:43.541Z,99.90
2018-08-23T17:15:14.805Z,99.90
2018-08-23T17:17:48.859Z,99.90
2018-08-23T17:20:19.460Z,99.90
2018-08-23T17:22:50.216Z,99.90
2018-08-23T17:25:21.023Z,99.90
2018-08-23T17:27:51.518Z,99.90
2018-08-23T17:30:22.385Z,99.90
2018-08-23T17:32:53.640Z,99.90
2018-08-23T17:35:24.756Z,99.90
2018-08-23T17:37:55.760Z,99.90
2018-08-23T17:40:26.507Z,99.90
2018-08-23T17:42:57.355Z,99.90
2018-08-23T17:45:27.682Z,99.90
2018-08-23T17:47:58.486Z,99.90
2018-08-23T17:50:28.628Z,99.90
2018-08-23T17:52:59.187Z,99.90
2018-08-23T17:55:29.611Z,99.90
2018-08-23T17:58:00.962Z,99.90
2018-08-23T18:00:31.619Z,99.90
2018-08-23T18:03:02.268Z,99.90
2018-08-23T18:05:32.611Z,99.90
2018-08-23T18:08:03.249Z,99.90
2018-08-23T18:10:33.581Z,99.90
2018-08-23T18:13:04.546Z,99.90
2018-08-23T18:15:40.114Z,99.90
2018-08-23T18:18:16.188Z,99.90
2018-08-23T18:20:46.647Z,99.90
2018-08-23T18:23:17.547Z,99.90
2018-08-23T18:25:48.284Z,99.90
2018-08-23T18:28:19.275Z,99.90
2018-08-23T18:30:50.104Z,99.90
2018-08-23T18:33:20.784Z,99.90
2018-08-23T18:35:51.258Z,99.90
2018-08-23T18:38:21.707Z,99.90
2018-08-23T18:40:52.327Z,99.90
2018-08-23T18:43:22.854Z,99.90
2018-08-23T18:45:53.743Z,99.90
2018-08-23T18:48:24.319Z,99.90
2018-08-23T18:50:54.674Z,99.90
2018-08-23T18:53:25.514Z,99.90
2018-08-23T18:55:56.207Z,99.90
2018-08-23T18:58:27.075Z,99.90
2018-08-23T19:00:57.885Z,99.90
2018-08-23T19:03:28.944Z,99.90
2018-08-23T19:05:59.395Z,99.90
2018-08-23T19:08:29.746Z,99.90
2018-08-23T19:11:01.529Z,99.90
2018-08-23T19:13:37.293Z,99.90
2018-08-23T19:16:15.910Z,99.90
2018-08-23T19:18:47.111Z,99.90
2018-08-23T19:21:18.355Z,99.90
2018-08-23T19:23:49.739Z,99.90
2018-08-23T19:26:20.545Z,99.90
2018-08-23T19:28:51.099Z,99.90
2018-08-23T19:31:22.039Z,99.90
2018-08-23T19:33:52.615Z,99.90
2018-08-23T19:36:23.701Z,99.90
2018-08-23T19:38:55.039Z,99.90
2018-08-23T19:41:25.643Z,99.90
2018-08-23T19:43:57.465Z,99.90
2018-08-23T19:46:33.040Z,99.90
2018-08-23T19:49:09.093Z,99.90
2018-08-23T19:51:40.841Z,99.90
2018-08-23T19:54:11.616Z,99.90
2018-08-23T19:56:42.831Z,99.90
2018-08-23T19:59:13.640Z,99.90
2018-08-23T20:01:44.171Z,99.90
2018-08-23T20:04:15.252Z,99.90
2018-08-23T20:06:46.084Z,99.90
2018-08-23T20:09:17.110Z,99.90
2018-08-23T20:11:50.078Z,99.90
2018-08-23T20:14:21.710Z,99.90
2018-08-23T20:17:08.342Z,99.90
2018-08-23T20:19:39.020Z,99.90
2018-08-23T20:22:13.119Z,99.90
2018-08-23T20:24:50.718Z,99.90
2018-08-23T20:27:23.240Z,99.90
2018-08-23T20:29:54.697Z,99.90
2018-08-23T20:32:25.713Z,99.90
2018-08-23T20:35:00.682Z,99.90
2018-08-23T20:37:34.409Z,99.90
2018-08-23T20:40:07.307Z,99.90
2018-08-23T20:42:38.318Z,99.90
2018-08-23T20:45:09.332Z,99.90
2018-08-23T20:47:48.793Z,99.90
2018-08-23T20:50:20.057Z,99.90
2018-08-23T20:52:50.848Z,99.90
2018-08-23T20:55:21.519Z,99.90
2018-08-23T20:57:52.352Z,99.90
2018-08-23T21:00:23.591Z,99.90
2018-08-23T21:02:54.513Z,99.90
2018-08-23T21:05:25.528Z,99.90
2018-08-23T21:07:56.480Z,99.90
2018-08-23T21:10:28.055Z,99.90
2018-08-23T21:12:58.927Z,99.90
2018-08-23T21:15:38.021Z,99.90
2018-08-23T21:18:11.159Z,99.90
2018-08-23T21:20:42.298Z,99.90
2018-08-23T21:23:13.055Z,99.90
2018-08-23T21:26:02.551Z,99.90
2018-08-23T21:28:33.533Z,99.90
2018-08-23T21:31:11.768Z,99.90
2018-08-23T21:33:44.062Z,99.90
2018-08-23T21:36:17.294Z,99.90
2018-08-23T21:38:52.120Z,99.90
2018-08-23T21:41:23.082Z,99.90
2018-08-23T21:43:54.095Z,99.90
2018-08-23T21:46:25.108Z,99.90
2018-08-23T21:48:58.293Z,99.90
2018-08-23T21:51:33.440Z,99.90
2018-08-23T21:54:04.428Z,99.90
2018-08-23T21:56:35.844Z,99.90
2018-08-23T21:59:06.451Z,99.90
2018-08-23T22:01:37.344Z,99.90
2018-08-23T22:04:08.098Z,99.90
2018-08-23T22:06:39.500Z,99.90
2018-08-23T22:09:11.376Z,99.90
2018-08-23T22:11:43.700Z,99.90
2018-08-23T22:14:17.044Z,99.90
2018-08-23T22:16:49.722Z,99.90
2018-08-23T22:19:20.470Z,99.90
2018-08-23T22:21:51.370Z,99.90
2018-08-23T22:24:22.027Z,99.90
2018-08-23T22:26:52.899Z,99.90
2018-08-23T22:29:23.126Z,99.90
2018-08-23T22:31:53.590Z,99.90
2018-08-23T22:34:26.832Z,99.90
2018-08-23T22:36:57.426Z,99.90
2018-08-23T22:39:27.900Z,99.90
2018-08-23T22:41:58.818Z,99.90
2018-08-23T22:44:29.316Z,99.90
2018-08-23T22:47:04.084Z,99.90
2018-08-23T22:49:34.625Z,99.90
2018-08-23T22:52:05.490Z,99.90
2018-08-23T22:54:43.512Z,99.90
2018-08-23T22:57:13.992Z,99.90
2018-08-23T22:59:44.453Z,99.90
2018-08-23T23:02:21.674Z,99.90
2018-08-23T23:04:52.157Z,99.90
2018-08-23T23:07:22.607Z,99.90
2018-08-23T23:09:53.275Z,99.90
2018-08-23T23:12:23.917Z,99.90
2018-08-23T23:15:10.090Z,99.90
2018-08-23T23:17:40.462Z,99.90
2018-08-23T23:20:10.879Z,99.90
2018-08-23T23:22:41.544Z,99.90
2018-08-23T23:25:12.050Z,99.90
2018-08-23T23:27:42.834Z,99.90
2018-08-23T23:30:13.339Z,99.90
2018-08-23T23:32:43.748Z,99.90
2018-08-23T23:35:14.159Z,99.90
2018-08-23T23:37:52.362Z,99.90
2018-08-23T23:40:22.890Z,99.90
2018-08-23T23:42:53.215Z,99.90
2018-08-23T23:45:23.559Z,99.90
2018-08-23T23:47:53.984Z,99.90
2018-08-23T23:50:24.431Z,99.90
2018-08-23T23:52:54.820Z,99.90
2018-08-23T23:55:25.471Z,99.90
2018-08-23T23:57:56.113Z,99.90
